createdAt,value
2019-01-29T00:01:32.473Z,6.37
2019-01-29T00:04:00.181Z,5.80
2019-01-29T00:06:27.889Z,6.43
2019-01-29T00:08:55.669Z,6.93
2019-01-29T00:11:23.368Z,6.63
2019-01-29T00:13:51.125Z,6.47
2019-01-29T00:16:18.858Z,7.30
2019-01-29T00:18:46.548Z,7.10
2019-01-29T00:21:14.261Z,6.53
2019-01-29T00:23:41.966Z,7.10
2019-01-29T00:26:09.693Z,7.20
2019-01-29T00:28:37.447Z,7.87
2019-01-29T00:31:05.140Z,8.17
2019-01-29T00:33:32.849Z,6.93
2019-01-29T00:36:00.549Z,8.20
2019-01-29T00:38:28.300Z,7.90
2019-01-29T00:40:55.993Z,8.43
2019-01-29T00:43:23.689Z,8.37
2019-01-29T00:45:51.425Z,8.10
2019-01-29T00:48:19.109Z,8.40
2019-01-29T00:50:46.803Z,8.10
2019-01-29T00:53:14.529Z,6.80
2019-01-29T00:55:42.249Z,7.67
2019-01-29T00:58:09.954Z,7.73
2019-01-29T01:00:37.779Z,6.90
2019-01-29T01:03:05.533Z,7.13
2019-01-29T01:05:33.238Z,7.10
2019-01-29T01:08:00.961Z,5.60
2019-01-29T01:10:28.670Z,5.80
2019-01-29T01:12:56.442Z,6.10
2019-01-29T01:15:24.124Z,6.20
2019-01-29T01:17:51.893Z,5.33
2019-01-29T01:20:19.634Z,5.43
2019-01-29T01:22:51.004Z,5.13
2019-01-29T01:25:16.979Z,5.83
2019-01-29T01:27:44.665Z,5.90
2019-01-29T01:30:17.113Z,5.60
2019-01-29T01:32:44.877Z,5.83
2019-01-29T01:35:12.654Z,5.33
2019-01-29T01:37:40.340Z,5.97
2019-01-29T01:40:14.192Z,5.20
2019-01-29T01:42:41.877Z,5.03
2019-01-29T01:45:09.818Z,4.97
2019-01-29T01:47:37.516Z,5.23
2019-01-29T01:50:05.825Z,5.97
2019-01-29T01:52:33.527Z,4.90
2019-01-29T01:55:01.313Z,4.70
2019-01-29T01:57:29.053Z,4.63
2019-01-29T01:59:56.745Z,5.50
2019-01-29T02:02:24.462Z,5.63
2019-01-29T02:04:52.233Z,5.37
2019-01-29T02:07:19.957Z,5.20
2019-01-29T02:09:47.685Z,7.37
2019-01-29T02:12:15.433Z,8.13
2019-01-29T02:14:43.125Z,6.80
2019-01-29T02:17:10.954Z,7.37
2019-01-29T02:19:38.690Z,8.40
2019-01-29T02:22:06.373Z,6.47
2019-01-29T02:24:34.145Z,6.70
2019-01-29T02:27:01.825Z,7.07
2019-01-29T02:29:29.530Z,7.27
2019-01-29T02:31:57.270Z,7.80
2019-01-29T02:34:24.971Z,7.60
2019-01-29T02:36:52.657Z,8.57
2019-01-29T02:39:20.446Z,7.70
2019-01-29T02:41:48.195Z,7.90
2019-01-29T02:44:15.882Z,7.57
2019-01-29T02:46:43.638Z,7.77
2019-01-29T02:49:11.809Z,7.20
2019-01-29T02:51:39.549Z,8.43
2019-01-29T02:54:07.269Z,10.30
2019-01-29T02:56:34.979Z,10.17
2019-01-29T02:59:02.732Z,9.53
2019-01-29T03:01:30.465Z,9.57
2019-01-29T03:03:58.169Z,9.27
2019-01-29T03:06:25.949Z,8.57
2019-01-29T03:08:53.678Z,8.60
2019-01-29T03:11:21.373Z,9.23
2019-01-29T03:13:49.083Z,10.33
2019-01-29T03:16:17.113Z,9.67
2019-01-29T03:18:44.813Z,9.23
2019-01-29T03:21:12.501Z,9.30
2019-01-29T03:23:40.233Z,9.47
2019-01-29T03:26:07.933Z,9.87
2019-01-29T03:28:35.641Z,8.07
2019-01-29T03:31:03.358Z,7.83
2019-01-29T03:33:31.107Z,8.13
2019-01-29T03:35:58.792Z,8.30
2019-01-29T03:38:26.525Z,8.60
2019-01-29T03:40:54.228Z,6.97
2019-01-29T03:43:21.917Z,7.47
2019-01-29T03:45:49.745Z,7.43
2019-01-29T03:48:17.782Z,7.17
2019-01-29T03:50:45.520Z,6.57
2019-01-29T03:53:13.220Z,6.13
2019-01-29T03:55:40.925Z,6.20
2019-01-29T03:58:08.682Z,6.30
2019-01-29T04:00:36.393Z,6.73
2019-01-29T04:03:04.117Z,5.90
2019-01-29T04:05:31.805Z,6.10
2019-01-29T04:07:59.651Z,5.67
2019-01-29T04:10:27.394Z,5.70
2019-01-29T04:12:55.094Z,6.20
2019-01-29T04:15:23.297Z,5.83
2019-01-29T04:17:54.589Z,5.27
2019-01-29T04:20:22.269Z,5.90
2019-01-29T04:22:50.022Z,5.47
2019-01-29T04:25:17.762Z,5.90
2019-01-29T04:27:45.541Z,5.67
2019-01-29T04:30:17.980Z,7.17
2019-01-29T04:32:45.718Z,6.50
2019-01-29T04:35:13.386Z,6.40
2019-01-29T04:37:41.117Z,7.37
2019-01-29T04:40:10.411Z,6.63
2019-01-29T04:42:38.100Z,6.63
2019-01-29T04:45:07.965Z,6.97
2019-01-29T04:47:35.672Z,6.43
2019-01-29T04:50:03.946Z,7.13
2019-01-29T04:52:31.957Z,8.67
2019-01-29T04:54:59.644Z,9.10
2019-01-29T04:57:27.343Z,8.93
2019-01-29T04:59:55.060Z,8.40
2019-01-29T05:02:22.761Z,8.57
2019-01-29T05:04:50.487Z,7.17
2019-01-29T05:07:18.212Z,7.03
2019-01-29T05:09:46.457Z,12.73
2019-01-29T05:12:14.353Z,15.27
2019-01-29T05:14:42.068Z,14.50
2019-01-29T05:17:09.759Z,13.10
2019-01-29T05:19:37.440Z,14.57
2019-01-29T05:22:05.341Z,14.13
2019-01-29T05:24:32.979Z,10.77
2019-01-29T05:27:00.669Z,8.77
2019-01-29T05:29:28.414Z,7.03
2019-01-29T05:31:56.110Z,6.77
2019-01-29T05:34:24.123Z,6.07
2019-01-29T05:36:51.877Z,8.43
2019-01-29T05:39:19.597Z,7.00
2019-01-29T05:41:47.297Z,7.77
2019-01-29T05:44:15.025Z,6.73
2019-01-29T05:46:42.717Z,6.80
2019-01-29T05:49:10.421Z,7.30
2019-01-29T05:51:40.608Z,7.93
2019-01-29T05:54:15.867Z,7.43
2019-01-29T05:56:38.681Z,7.63
2019-01-29T05:59:06.413Z,8.17
2019-01-29T06:01:34.104Z,7.67
2019-01-29T06:04:01.801Z,8.13
2019-01-29T06:06:29.532Z,7.43
2019-01-29T06:08:57.221Z,8.97
2019-01-29T06:11:25.280Z,8.57
2019-01-29T06:13:52.995Z,9.10
2019-01-29T06:16:20.689Z,10.00
2019-01-29T06:18:48.398Z,9.03
2019-01-29T06:21:16.107Z,7.67
2019-01-29T06:23:43.797Z,9.13
2019-01-29T06:26:11.554Z,10.28
2019-01-29T06:28:39.284Z,8.50
2019-01-29T06:31:06.976Z,8.20
2019-01-29T06:33:34.682Z,8.47
2019-01-29T06:36:02.599Z,9.07
2019-01-29T06:38:30.381Z,10.57
2019-01-29T06:40:58.017Z,8.60
2019-01-29T06:43:25.788Z,9.47
2019-01-29T06:45:53.477Z,9.60
2019-01-29T06:48:21.184Z,9.40
2019-01-29T06:50:48.913Z,9.00
2019-01-29T06:53:16.617Z,9.20
2019-01-29T06:55:44.322Z,8.97
2019-01-29T06:58:12.117Z,7.80
2019-01-29T07:00:40.219Z,8.37
2019-01-29T07:03:07.911Z,10.43
2019-01-29T07:05:35.617Z,11.43
2019-01-29T07:08:03.312Z,12.97
2019-01-29T07:10:31.040Z,11.83
2019-01-29T07:12:58.912Z,12.60
2019-01-29T07:15:45.066Z,12.70
2019-01-29T07:18:35.079Z,11.03
2019-01-29T07:21:05.491Z,12.30
2019-01-29T07:23:33.190Z,17.83
2019-01-29T07:26:00.951Z,14.83
2019-01-29T07:28:28.662Z,11.57
2019-01-29T07:30:56.392Z,13.13
2019-01-29T07:33:24.137Z,12.37
2019-01-29T07:35:51.853Z,11.00
2019-01-29T07:38:19.554Z,12.53
2019-01-29T07:40:47.285Z,12.63
2019-01-29T07:43:14.981Z,11.93
2019-01-29T07:45:42.714Z,13.13
2019-01-29T07:48:10.445Z,13.20
2019-01-29T07:50:38.182Z,13.30
2019-01-29T07:53:05.912Z,14.23
2019-01-29T07:55:33.628Z,15.00
2019-01-29T07:58:01.325Z,13.67
2019-01-29T08:00:29.076Z,14.10
2019-01-29T08:02:56.791Z,12.80
2019-01-29T08:05:24.477Z,12.57
2019-01-29T08:07:52.208Z,11.90
2019-01-29T08:10:20.038Z,13.30
2019-01-29T08:12:47.757Z,11.87
2019-01-29T08:15:15.526Z,11.83
2019-01-29T08:17:43.242Z,12.03
2019-01-29T08:20:10.969Z,11.03
2019-01-29T08:22:38.669Z,10.73
2019-01-29T08:25:06.518Z,12.30
2019-01-29T08:27:34.233Z,11.33
2019-01-29T08:30:02.071Z,12.17
2019-01-29T08:32:29.757Z,13.20
2019-01-29T08:34:57.482Z,12.07
2019-01-29T08:37:25.200Z,13.10
2019-01-29T08:39:52.901Z,12.27
2019-01-29T08:42:20.606Z,11.77
2019-01-29T08:44:48.343Z,12.03
2019-01-29T08:47:16.057Z,13.13
2019-01-29T08:49:43.823Z,11.60
2019-01-29T08:52:11.696Z,12.13
2019-01-29T08:54:39.497Z,11.63
2019-01-29T08:57:08.975Z,11.73
2019-01-29T08:59:36.808Z,15.32
2019-01-29T09:02:04.542Z,13.07
2019-01-29T09:04:32.263Z,11.30
2019-01-29T09:06:59.965Z,14.75
2019-01-29T09:09:27.673Z,14.67
2019-01-29T09:11:55.394Z,11.40
2019-01-29T09:14:23.103Z,9.77
2019-01-29T09:16:50.817Z,12.10
2019-01-29T09:19:18.510Z,10.37
2019-01-29T09:21:46.295Z,10.03
2019-01-29T09:24:13.989Z,11.68
2019-01-29T09:26:41.726Z,10.27
2019-01-29T09:29:17.450Z,10.57
2019-01-29T09:31:38.977Z,9.03
2019-01-29T09:34:06.698Z,10.03
2019-01-29T09:36:34.406Z,11.67
2019-01-29T09:39:02.646Z,9.97
2019-01-29T09:41:30.353Z,10.77
2019-01-29T09:43:58.068Z,10.90
2019-01-29T09:46:25.831Z,14.07
2019-01-29T09:48:53.545Z,12.73
2019-01-29T09:51:21.257Z,11.53
2019-01-29T09:53:49.106Z,11.30
2019-01-29T09:56:16.822Z,11.13
2019-01-29T09:58:44.533Z,11.67
2019-01-29T10:01:12.265Z,11.53
2019-01-29T10:03:40.025Z,9.73
2019-01-29T10:06:07.750Z,10.67
2019-01-29T10:08:35.486Z,13.93
2019-01-29T10:11:03.201Z,11.03
2019-01-29T10:13:31.340Z,10.77
2019-01-29T10:15:59.029Z,11.33
2019-01-29T10:18:26.761Z,11.67
2019-01-29T10:20:54.446Z,10.90
2019-01-29T10:23:22.144Z,9.83
2019-01-29T10:25:49.861Z,9.83
2019-01-29T10:28:17.553Z,9.80
2019-01-29T10:30:45.245Z,11.33
2019-01-29T10:33:12.981Z,9.67
2019-01-29T10:35:40.885Z,9.73
2019-01-29T10:38:08.595Z,8.03
2019-01-29T10:40:37.013Z,10.45
2019-01-29T10:43:05.121Z,9.17
2019-01-29T10:45:32.945Z,7.97
2019-01-29T10:48:00.691Z,8.57
2019-01-29T10:50:28.674Z,9.07
2019-01-29T10:52:56.461Z,10.90
2019-01-29T10:55:24.195Z,9.57
2019-01-29T10:57:52.072Z,7.33
2019-01-29T11:00:22.569Z,8.83
2019-01-29T11:02:50.298Z,7.30
2019-01-29T11:05:18.517Z,6.33
2019-01-29T11:07:46.225Z,8.30
2019-01-29T11:10:14.156Z,7.47
2019-01-29T11:12:41.870Z,7.83
2019-01-29T11:15:21.222Z,6.00
2019-01-29T11:17:48.952Z,6.40
2019-01-29T11:20:16.696Z,7.93
2019-01-29T11:22:44.409Z,6.97
2019-01-29T11:25:16.192Z,8.78
2019-01-29T11:27:43.961Z,9.10
2019-01-29T11:30:13.155Z,6.93
2019-01-29T11:32:40.881Z,6.60
2019-01-29T11:35:08.710Z,7.03
2019-01-29T11:37:36.415Z,6.87
2019-01-29T11:40:04.833Z,6.97
2019-01-29T11:42:32.537Z,7.13
2019-01-29T11:45:00.331Z,7.00
2019-01-29T11:47:28.121Z,7.00
2019-01-29T11:49:55.836Z,9.27
2019-01-29T11:52:23.546Z,6.37
2019-01-29T11:54:51.250Z,6.57
2019-01-29T11:57:18.965Z,6.37
2019-01-29T11:59:46.709Z,5.93
2019-01-29T12:02:16.337Z,5.33
2019-01-29T12:04:44.203Z,5.47
2019-01-29T12:07:11.918Z,5.67
2019-01-29T12:09:39.652Z,5.77
2019-01-29T12:12:07.361Z,5.47
2019-01-29T12:14:35.076Z,5.30
2019-01-29T12:17:02.773Z,4.93
2019-01-29T12:19:30.492Z,5.00
2019-01-29T12:21:58.201Z,5.07
2019-01-29T12:24:25.897Z,4.43
2019-01-29T12:26:53.657Z,5.70
2019-01-29T12:29:21.373Z,4.97
2019-01-29T12:31:49.092Z,5.57
2019-01-29T12:34:16.829Z,5.40
2019-01-29T12:36:44.525Z,5.23
2019-01-29T12:39:12.241Z,5.80
2019-01-29T12:41:39.942Z,5.23
2019-01-29T12:44:07.653Z,5.90
2019-01-29T12:46:35.390Z,7.13
2019-01-29T12:49:03.085Z,6.33
2019-01-29T12:51:56.062Z,6.03
2019-01-29T12:54:23.761Z,5.23
2019-01-29T12:56:51.482Z,5.83
2019-01-29T12:59:19.212Z,5.80
2019-01-29T13:01:46.900Z,6.27
2019-01-29T13:04:14.624Z,6.07
2019-01-29T13:06:42.220Z,5.30
2019-01-29T13:09:11.024Z,5.27
2019-01-29T13:11:38.737Z,6.70
2019-01-29T13:14:06.466Z,5.50
2019-01-29T13:16:34.165Z,6.17
2019-01-29T13:19:01.882Z,5.77
2019-01-29T13:21:29.577Z,5.00
2019-01-29T13:23:57.339Z,4.77
2019-01-29T13:26:29.891Z,4.70
2019-01-29T13:28:54.552Z,4.53
2019-01-29T13:31:22.277Z,4.80
2019-01-29T13:33:50.024Z,6.53
2019-01-29T13:36:17.741Z,5.50
2019-01-29T13:38:45.463Z,4.73
2019-01-29T13:41:13.293Z,5.40
2019-01-29T13:43:40.991Z,5.07
2019-01-29T13:46:08.862Z,4.83
2019-01-29T13:48:36.580Z,5.03
2019-01-29T13:51:04.285Z,4.97
2019-01-29T13:53:32.010Z,4.00
2019-01-29T13:55:59.712Z,3.63
2019-01-29T13:58:27.405Z,4.60
2019-01-29T14:00:55.130Z,5.57
2019-01-29T14:03:22.851Z,4.13
2019-01-29T14:05:50.582Z,7.17
2019-01-29T14:08:18.296Z,4.97
2019-01-29T14:10:46.052Z,4.83
2019-01-29T14:13:13.752Z,8.73
2019-01-29T14:15:46.532Z,5.63
2019-01-29T14:18:15.013Z,4.60
2019-01-29T14:20:42.762Z,4.03
2019-01-29T14:23:10.496Z,4.83
2019-01-29T14:25:38.207Z,4.60
2019-01-29T14:28:05.961Z,4.23
2019-01-29T14:30:33.657Z,4.03
2019-01-29T14:33:01.363Z,4.60
2019-01-29T14:35:29.232Z,4.53
2019-01-29T14:38:45.066Z,4.00
2019-01-29T14:41:13.456Z,4.50
2019-01-29T14:43:46.354Z,3.50
2019-01-29T14:46:14.214Z,3.80
2019-01-29T14:48:41.917Z,4.00
2019-01-29T14:51:09.825Z,4.23
2019-01-29T14:53:37.629Z,6.10
2019-01-29T14:56:05.268Z,4.07
2019-01-29T14:58:33.209Z,3.60
2019-01-29T15:01:00.993Z,5.63
2019-01-29T15:03:28.756Z,4.90
2019-01-29T15:05:56.462Z,4.80
2019-01-29T15:08:24.230Z,3.73
2019-01-29T15:10:51.940Z,4.43
2019-01-29T15:13:19.694Z,4.33
2019-01-29T15:15:51.264Z,3.93
2019-01-29T15:18:22.359Z,4.63
2019-01-29T15:20:50.090Z,4.47
2019-01-29T15:23:17.889Z,4.20
2019-01-29T15:25:45.520Z,6.30
2019-01-29T15:28:13.257Z,6.57
2019-01-29T15:30:41.112Z,5.43
2019-01-29T15:33:08.829Z,4.37
2019-01-29T15:35:36.541Z,4.73
2019-01-29T15:38:04.294Z,4.67
2019-01-29T15:40:32.001Z,5.00
2019-01-29T15:42:59.712Z,6.27
2019-01-29T15:45:27.461Z,5.87
2019-01-29T15:47:55.289Z,6.03
2019-01-29T15:50:23.037Z,6.00
2019-01-29T15:52:50.735Z,6.00
2019-01-29T15:55:18.756Z,6.27
2019-01-29T15:57:46.491Z,6.53
2019-01-29T16:00:17.401Z,6.47
2019-01-29T16:02:45.121Z,4.87
2019-01-29T16:05:14.872Z,6.43
2019-01-29T16:07:42.741Z,4.90
2019-01-29T16:10:12.799Z,3.33
2019-01-29T16:12:40.490Z,5.30
2019-01-29T16:15:09.856Z,5.17
2019-01-29T16:17:37.589Z,5.40
2019-01-29T16:20:05.579Z,6.13
2019-01-29T16:22:33.293Z,7.50
2019-01-29T16:25:01.101Z,6.50
2019-01-29T16:27:28.854Z,5.27
2019-01-29T16:29:57.065Z,5.17
2019-01-29T16:32:24.765Z,3.53
2019-01-29T16:34:52.537Z,3.07
2019-01-29T16:37:20.267Z,4.60
2019-01-29T16:39:48.029Z,3.67
2019-01-29T16:42:15.779Z,3.63
2019-01-29T16:44:43.465Z,2.90
2019-01-29T16:47:11.246Z,3.00
2019-01-29T16:49:38.947Z,3.60
2019-01-29T16:52:06.624Z,3.07
2019-01-29T16:54:34.388Z,3.73
2019-01-29T16:57:02.081Z,2.90
2019-01-29T16:59:29.865Z,2.87
2019-01-29T17:01:57.565Z,2.40
2019-01-29T17:04:25.286Z,2.00
2019-01-29T17:06:52.969Z,2.47
2019-01-29T17:09:20.697Z,2.27
2019-01-29T17:11:48.477Z,2.43
2019-01-29T17:14:16.318Z,3.10
2019-01-29T17:16:44.038Z,3.00
2019-01-29T17:19:11.735Z,2.83
2019-01-29T17:21:39.462Z,4.50
2019-01-29T17:24:07.161Z,3.27
2019-01-29T17:26:35.129Z,4.80
2019-01-29T17:29:02.821Z,3.03
2019-01-29T17:31:30.629Z,2.10
2019-01-29T17:33:58.336Z,4.07
2019-01-29T17:36:26.077Z,2.10
2019-01-29T17:38:53.745Z,2.50
2019-01-29T17:41:21.453Z,2.37
2019-01-29T17:43:49.411Z,2.43
2019-01-29T17:46:17.107Z,2.03
2019-01-29T17:48:44.913Z,2.13
2019-01-29T17:51:12.716Z,2.33
2019-01-29T17:53:40.673Z,2.50
2019-01-29T17:56:08.396Z,2.37
2019-01-29T17:58:36.103Z,3.40
2019-01-29T18:01:04.106Z,2.50
2019-01-29T18:03:31.827Z,2.50
2019-01-29T18:05:59.561Z,3.37
2019-01-29T18:08:27.261Z,3.00
2019-01-29T18:10:55.358Z,2.70
2019-01-29T18:13:23.109Z,2.23
2019-01-29T18:15:50.848Z,2.27
2019-01-29T18:18:18.577Z,2.80
2019-01-29T18:20:46.305Z,2.90
2019-01-29T18:23:13.997Z,3.13
2019-01-29T18:25:41.703Z,2.10
2019-01-29T18:28:09.427Z,2.97
2019-01-29T18:30:37.245Z,2.57
2019-01-29T18:33:04.973Z,2.20
2019-01-29T18:35:32.677Z,2.47
2019-01-29T18:38:00.404Z,2.40
2019-01-29T18:40:34.093Z,2.33
2019-01-29T18:43:01.776Z,2.60
2019-01-29T18:45:29.501Z,2.40
2019-01-29T18:47:57.214Z,3.17
2019-01-29T18:50:25.062Z,2.63
2019-01-29T18:52:52.773Z,2.63
2019-01-29T18:55:20.501Z,3.07
2019-01-29T18:57:48.213Z,2.70
2019-01-29T19:00:18.001Z,2.97
2019-01-29T19:02:45.732Z,3.23
2019-01-29T19:05:13.549Z,2.70
2019-01-29T19:07:41.241Z,3.03
2019-01-29T19:10:10.388Z,3.20
2019-01-29T19:12:38.076Z,3.47
2019-01-29T19:15:08.060Z,3.03
2019-01-29T19:17:35.781Z,3.33
2019-01-29T19:20:04.241Z,2.77
2019-01-29T19:22:51.348Z,3.87
2019-01-29T19:25:19.046Z,3.20
2019-01-29T19:27:46.750Z,3.90
2019-01-29T19:30:22.645Z,3.30
2019-01-29T19:32:50.342Z,3.10
2019-01-29T19:35:17.964Z,2.60
2019-01-29T19:37:45.679Z,2.40
2019-01-29T19:40:13.441Z,3.63
2019-01-29T19:42:41.269Z,3.07
2019-01-29T19:45:13.512Z,3.40
2019-01-29T19:47:41.237Z,2.93
2019-01-29T19:50:12.773Z,4.17
2019-01-29T19:52:40.488Z,3.73
2019-01-29T19:55:08.201Z,4.77
2019-01-29T19:57:35.933Z,5.67
2019-01-29T20:00:04.377Z,6.03
2019-01-29T20:02:37.918Z,5.60
2019-01-29T20:05:06.001Z,5.40
2019-01-29T20:07:33.709Z,10.63
2019-01-29T20:10:01.412Z,7.53
2019-01-29T20:12:29.129Z,6.60
2019-01-29T20:14:56.833Z,3.90
2019-01-29T20:17:24.651Z,4.20
2019-01-29T20:19:52.338Z,3.93
2019-01-29T20:22:20.049Z,3.37
2019-01-29T20:24:47.761Z,3.50
2019-01-29T20:27:15.539Z,2.67
2019-01-29T20:29:43.269Z,3.40
2019-01-29T20:32:10.948Z,4.53
2019-01-29T20:34:38.657Z,4.10
2019-01-29T20:37:06.353Z,4.10
2019-01-29T20:39:34.972Z,4.63
2019-01-29T20:42:03.001Z,3.23
2019-01-29T20:44:30.709Z,6.08
2019-01-29T20:46:58.350Z,4.33
2019-01-29T20:49:26.373Z,4.00
2019-01-29T20:51:54.216Z,5.93
2019-01-29T20:54:21.909Z,4.30
2019-01-29T20:56:49.605Z,3.93
2019-01-29T20:59:17.358Z,3.35
2019-01-29T21:01:45.264Z,3.27
2019-01-29T21:04:13.138Z,2.57
2019-01-29T21:06:40.845Z,2.10
2019-01-29T21:09:09.045Z,1.33
2019-01-29T21:11:36.763Z,2.10
2019-01-29T21:14:04.460Z,1.83
2019-01-29T21:16:32.177Z,2.23
2019-01-29T21:18:59.929Z,3.90
2019-01-29T21:21:27.646Z,3.93
2019-01-29T21:23:55.337Z,5.37
2019-01-29T21:26:23.141Z,3.20
2019-01-29T21:28:50.992Z,2.00
2019-01-29T21:31:18.738Z,2.97
2019-01-29T21:33:46.434Z,3.57
2019-01-29T21:36:14.141Z,2.80
2019-01-29T21:38:41.859Z,3.47
2019-01-29T21:41:09.562Z,3.80
2019-01-29T21:43:37.283Z,3.97
2019-01-29T21:46:04.980Z,3.53
2019-01-29T21:48:32.752Z,3.40
2019-01-29T21:51:00.055Z,4.47
2019-01-29T21:53:27.755Z,3.70
2019-01-29T21:55:55.452Z,3.10
2019-01-29T21:58:23.241Z,3.47
2019-01-29T22:00:50.990Z,3.90
2019-01-29T22:03:18.729Z,4.43
2019-01-29T22:05:46.435Z,3.43
2019-01-29T22:08:14.141Z,4.47
2019-01-29T22:10:41.897Z,4.27
2019-01-29T22:13:10.816Z,4.13
2019-01-29T22:15:38.675Z,4.00
2019-01-29T22:18:07.954Z,3.57
2019-01-29T22:20:38.869Z,3.37
2019-01-29T22:23:06.648Z,3.13
2019-01-29T22:25:35.863Z,2.17
2019-01-29T22:28:05.287Z,2.23
2019-01-29T22:30:34.566Z,2.17
2019-01-29T22:33:04.590Z,2.73
2019-01-29T22:35:32.341Z,2.57
2019-01-29T22:38:00.466Z,2.13
2019-01-29T22:40:28.471Z,2.70
2019-01-29T22:42:57.261Z,2.30
2019-01-29T22:45:25.041Z,2.87
2019-01-29T22:47:54.562Z,2.63
2019-01-29T22:50:27.352Z,2.83
2019-01-29T22:52:55.411Z,2.63
2019-01-29T22:55:23.157Z,2.70
2019-01-29T22:57:55.913Z,3.43
2019-01-29T23:01:14.669Z,2.47
2019-01-29T23:03:44.562Z,2.50
2019-01-29T23:06:43.442Z,3.40
2019-01-29T23:09:11.280Z,2.10
2019-01-29T23:11:41.137Z,2.17
2019-01-29T23:14:10.398Z,2.13
2019-01-29T23:16:38.576Z,2.10
2019-01-29T23:19:06.338Z,1.93
2019-01-29T23:21:35.834Z,2.00
2019-01-29T23:24:03.924Z,1.50
2019-01-29T23:26:31.651Z,1.40
2019-01-29T23:28:59.455Z,1.17
2019-01-29T23:31:27.149Z,1.37
2019-01-29T23:33:54.889Z,1.70
2019-01-29T23:36:25.386Z,1.37
2019-01-29T23:38:55.615Z,2.03
2019-01-29T23:41:23.477Z,1.33
2019-01-29T23:43:51.183Z,1.30
2019-01-29T23:46:18.969Z,1.10
2019-01-29T23:48:46.684Z,2.27
2019-01-29T23:51:14.789Z,2.00
2019-01-29T23:53:42.479Z,1.13
2019-01-29T23:56:10.217Z,1.53
2019-01-29T23:58:37.937Z,0.90
